createdAt,value
2022-08-11T00:01:05.558Z,16.82
2022-08-11T00:03:43.244Z,16.90
2022-08-11T00:06:14.144Z,16.87
2022-08-11T00:08:41.223Z,16.88
2022-08-11T00:11:12.384Z,16.68
2022-08-11T00:13:45.637Z,16.67
2022-08-11T00:16:19.375Z,16.95
2022-08-11T00:18:50.009Z,16.89
2022-08-11T00:21:17.962Z,16.88
2022-08-11T00:23:47.366Z,16.90
2022-08-11T00:26:14.770Z,16.91
2022-08-11T00:28:41.950Z,16.90
2022-08-11T00:31:12.066Z,16.90
2022-08-11T00:33:45.108Z,16.80
2022-08-11T00:36:15.747Z,16.90
2022-08-11T00:38:45.271Z,16.93
2022-08-11T00:41:20.884Z,16.83
2022-08-11T00:44:12.402Z,16.87
2022-08-11T00:47:25.425Z,16.84
2022-08-11T00:50:13.329Z,16.90
2022-08-11T00:53:21.229Z,16.81
2022-08-11T00:56:03.067Z,16.84
2022-08-11T00:58:59.610Z,16.80
2022-08-11T01:01:38.353Z,16.82
2022-08-11T01:04:42.291Z,16.82
2022-08-11T01:08:02.049Z,16.78
2022-08-11T01:10:31.924Z,16.80
2022-08-11T01:13:17.074Z,16.79
2022-08-11T01:16:12.794Z,16.80
2022-08-11T01:18:41.983Z,16.74
2022-08-11T01:21:20.814Z,16.75
2022-08-11T01:24:09.220Z,16.79
2022-08-11T01:26:57.582Z,16.77
2022-08-11T01:29:33.390Z,16.72
2022-08-11T01:32:09.221Z,16.73
2022-08-11T01:35:30.497Z,16.70
2022-08-11T01:38:12.321Z,16.78
2022-08-11T01:41:52.308Z,16.79
2022-08-11T01:44:52.650Z,16.74
2022-08-11T01:47:54.451Z,16.73
2022-08-11T01:50:52.214Z,16.80
2022-08-11T01:53:48.207Z,16.67
2022-08-11T01:56:52.607Z,16.76
2022-08-11T01:59:28.595Z,16.65
2022-08-11T02:01:58.384Z,16.72
2022-08-11T02:04:57.909Z,16.71
2022-08-11T02:07:52.733Z,16.70
2022-08-11T02:10:53.380Z,16.63
2022-08-11T02:13:48.919Z,16.63
2022-08-11T02:16:19.938Z,16.62
2022-08-11T02:19:14.323Z,16.65
2022-08-11T02:22:13.726Z,16.66
2022-08-11T02:24:47.665Z,16.69
2022-08-11T02:27:19.199Z,16.53
2022-08-11T02:29:51.885Z,16.62
2022-08-11T02:32:40.261Z,16.50
2022-08-11T02:35:13.284Z,16.46
2022-08-11T02:38:05.670Z,16.43
2022-08-11T02:41:03.189Z,16.52
2022-08-11T02:43:53.301Z,16.55
2022-08-11T02:46:19.855Z,16.56
2022-08-11T02:49:24.570Z,16.46
2022-08-11T02:52:01.250Z,16.34
2022-08-11T02:54:37.072Z,16.44
2022-08-11T02:57:24.406Z,16.35
2022-08-11T03:00:07.589Z,16.32
2022-08-11T03:02:49.198Z,16.35
2022-08-11T03:05:18.365Z,16.45
2022-08-11T03:07:52.231Z,16.51
2022-08-11T03:10:21.799Z,16.47
2022-08-11T03:13:23.451Z,16.44
2022-08-11T03:16:44.356Z,16.56
2022-08-11T03:19:32.734Z,16.64
2022-08-11T03:22:14.685Z,16.50
2022-08-11T03:24:59.019Z,16.52
2022-08-11T03:27:46.969Z,16.54
2022-08-11T03:30:21.711Z,16.55
2022-08-11T03:33:23.232Z,16.60
2022-08-11T03:36:01.791Z,16.47
2022-08-11T03:38:54.709Z,16.47
2022-08-11T03:41:50.448Z,16.49
2022-08-11T03:44:46.825Z,16.48
2022-08-11T03:47:52.443Z,16.48
2022-08-11T03:50:30.617Z,16.48
2022-08-11T03:53:35.739Z,16.42
2022-08-11T03:56:43.676Z,16.42
2022-08-11T03:59:39.570Z,16.40
2022-08-11T04:02:18.211Z,16.43
2022-08-11T04:05:03.586Z,16.46
2022-08-11T04:08:01.101Z,16.34
2022-08-11T04:10:36.672Z,16.34
2022-08-11T04:13:21.892Z,16.33
2022-08-11T04:16:26.271Z,16.28
2022-08-11T04:19:31.258Z,16.31
2022-08-11T04:21:58.050Z,16.29
2022-08-11T04:24:39.954Z,16.27
2022-08-11T04:27:37.481Z,16.29
2022-08-11T04:30:14.973Z,16.34
2022-08-11T04:32:54.087Z,16.34
2022-08-11T04:35:34.481Z,16.24
2022-08-11T04:38:42.370Z,16.24
2022-08-11T04:42:03.900Z,16.38
2022-08-11T04:44:48.567Z,16.51
2022-08-11T04:48:03.958Z,16.67
2022-08-11T04:51:17.297Z,16.64
2022-08-11T04:54:15.221Z,16.79
2022-08-11T04:57:03.152Z,16.84
2022-08-11T04:59:57.585Z,16.75
2022-08-11T05:02:26.957Z,16.55
2022-08-11T05:05:28.721Z,16.45
2022-08-11T05:08:33.014Z,16.48
2022-08-11T05:11:18.263Z,16.42
2022-08-11T05:14:04.913Z,16.47
2022-08-11T05:16:53.123Z,16.51
2022-08-11T05:19:39.578Z,16.67
2022-08-11T05:22:30.965Z,16.43
2022-08-11T05:26:44.110Z,16.27
2022-08-11T05:28:31.207Z,16.33
2022-08-11T05:31:38.764Z,16.29
2022-08-11T05:34:30.573Z,16.39
2022-08-11T05:37:29.243Z,16.49
2022-08-11T05:40:27.576Z,16.59
2022-08-11T05:43:20.419Z,16.48
2022-08-11T05:46:25.214Z,16.51
2022-08-11T05:49:11.408Z,16.49
2022-08-11T05:52:05.539Z,16.38
2022-08-11T05:54:59.383Z,16.30
2022-08-11T05:57:45.450Z,16.29
2022-08-11T06:00:19.124Z,16.27
2022-08-11T06:02:55.361Z,16.48
2022-08-11T06:05:23.160Z,16.59
2022-08-11T06:07:54.409Z,16.49
2022-08-11T06:10:33.254Z,16.59
2022-08-11T06:13:03.226Z,16.65
2022-08-11T06:15:31.730Z,16.55
2022-08-11T06:18:01.351Z,16.79
2022-08-11T06:20:32.730Z,16.73
2022-08-11T06:23:03.803Z,16.65
2022-08-11T06:25:32.363Z,16.79
2022-08-11T06:27:59.929Z,17.06
2022-08-11T06:30:42.756Z,17.57
2022-08-11T06:33:12.385Z,17.80
2022-08-11T06:35:48.266Z,17.56
2022-08-11T06:38:36.993Z,17.76
2022-08-11T06:41:28.340Z,17.67
2022-08-11T06:44:11.778Z,17.32
2022-08-11T06:46:40.410Z,17.42
2022-08-11T06:49:30.803Z,17.43
2022-08-11T06:52:07.374Z,17.57
2022-08-11T06:55:05.612Z,17.45
2022-08-11T06:57:55.745Z,17.55
2022-08-11T07:00:28.539Z,17.75
2022-08-11T07:03:19.730Z,17.75
2022-08-11T07:05:54.137Z,17.61
2022-08-11T07:09:07.312Z,17.44
2022-08-11T07:12:18.985Z,17.29
2022-08-11T07:15:12.282Z,17.15
2022-08-11T07:17:49.419Z,17.10
2022-08-11T07:20:36.344Z,17.20
2022-08-11T07:23:22.487Z,17.28
2022-08-11T07:26:11.730Z,17.46
2022-08-11T07:28:59.051Z,17.37
2022-08-11T07:31:29.207Z,17.23
2022-08-11T07:34:22.314Z,17.16
2022-08-11T07:36:59.117Z,16.97
2022-08-11T07:39:32.355Z,17.04
2022-08-11T07:42:00.636Z,17.11
2022-08-11T07:44:35.079Z,17.30
2022-08-11T07:47:21.127Z,17.09
2022-08-11T07:50:07.876Z,17.37
2022-08-11T07:52:41.054Z,17.48
2022-08-11T07:55:16.838Z,17.42
2022-08-11T07:58:15.551Z,17.47
2022-08-11T08:01:09.817Z,17.71
2022-08-11T08:03:56.926Z,17.98
2022-08-11T08:06:42.984Z,18.18
2022-08-11T08:09:29.354Z,17.96
2022-08-11T08:12:15.053Z,17.80
2022-08-11T08:15:01.207Z,18.05
2022-08-11T08:18:09.217Z,17.82
2022-08-11T08:20:45.548Z,17.68
2022-08-11T08:23:12.830Z,18.15
2022-08-11T08:25:40.781Z,18.37
2022-08-11T08:28:10.851Z,18.32
2022-08-11T08:30:47.599Z,18.11
2022-08-11T08:33:17.575Z,18.13
2022-08-11T08:35:54.329Z,18.10
2022-08-11T08:38:22.658Z,18.23
2022-08-11T08:40:53.987Z,18.17
2022-08-11T08:43:22.900Z,18.31
2022-08-11T08:45:49.594Z,18.12
2022-08-11T08:48:17.197Z,18.19
2022-08-11T08:51:16.652Z,18.23
2022-08-11T08:53:52.178Z,18.11
2022-08-11T08:56:25.537Z,18.08
2022-08-11T08:58:52.291Z,18.27
2022-08-11T09:01:21.310Z,17.97
2022-08-11T09:04:05.217Z,17.98
2022-08-11T09:06:39.868Z,17.94
2022-08-11T09:09:09.037Z,17.57
2022-08-11T09:11:55.355Z,17.84
2022-08-11T09:14:50.104Z,18.13
2022-08-11T09:17:21.054Z,17.93
2022-08-11T09:19:56.535Z,17.94
2022-08-11T09:22:47.050Z,18.04
2022-08-11T09:25:33.427Z,17.92
2022-08-11T09:28:00.572Z,18.13
2022-08-11T09:30:27.958Z,18.26
2022-08-11T09:32:58.211Z,18.74
2022-08-11T09:35:28.809Z,18.69
2022-08-11T09:38:19.822Z,18.87
2022-08-11T09:40:56.356Z,18.83
2022-08-11T09:43:43.118Z,18.80
2022-08-11T09:46:10.282Z,18.85
2022-08-11T09:48:40.535Z,18.89
2022-08-11T09:51:07.914Z,18.96
2022-08-11T09:53:40.978Z,19.13
2022-08-11T09:56:38.205Z,19.55
2022-08-11T09:59:05.952Z,20.04
2022-08-11T10:01:43.621Z,20.07
2022-08-11T10:04:17.785Z,20.42
2022-08-11T10:07:06.948Z,19.92
2022-08-11T10:09:42.684Z,20.06
2022-08-11T10:12:22.222Z,20.18
2022-08-11T10:15:12.496Z,20.20
2022-08-11T10:18:03.013Z,20.33
2022-08-11T10:20:32.969Z,20.03
2022-08-11T10:23:18.146Z,20.69
2022-08-11T10:26:04.536Z,20.77
2022-08-11T10:28:49.784Z,20.19
2022-08-11T10:31:56.709Z,20.53
2022-08-11T10:34:24.986Z,20.67
2022-08-11T10:36:55.216Z,19.99
2022-08-11T10:39:22.390Z,20.67
2022-08-11T10:42:12.225Z,20.66
2022-08-11T10:44:45.463Z,20.86
2022-08-11T10:47:32.569Z,21.14
2022-08-11T10:50:18.346Z,21.04
2022-08-11T10:53:06.223Z,21.27
2022-08-11T10:55:51.969Z,20.80
2022-08-11T10:58:37.555Z,20.45
2022-08-11T11:01:05.358Z,20.52
2022-08-11T11:03:34.685Z,20.85
2022-08-11T11:06:28.164Z,20.65
2022-08-11T11:09:05.118Z,20.40
2022-08-11T11:11:55.510Z,20.65
2022-08-11T11:14:46.393Z,20.85
2022-08-11T11:17:50.760Z,20.71
2022-08-11T11:20:36.154Z,20.83
2022-08-11T11:23:06.724Z,20.96
2022-08-11T11:26:14.932Z,20.84
2022-08-11T11:28:50.531Z,21.29
2022-08-11T11:31:33.736Z,21.27
2022-08-11T11:34:53.270Z,21.78
2022-08-11T11:37:23.141Z,21.59
2022-08-11T11:39:50.242Z,21.45
2022-08-11T11:42:18.512Z,21.40
2022-08-11T11:44:45.985Z,21.32
2022-08-11T11:47:13.010Z,21.34
2022-08-11T11:49:43.854Z,21.82
2022-08-11T11:52:15.141Z,21.77
2022-08-11T11:54:42.369Z,21.61
2022-08-11T11:57:27.849Z,21.48
2022-08-11T12:00:13.407Z,21.39
2022-08-11T12:02:41.029Z,21.53
2022-08-11T12:05:08.643Z,21.96
2022-08-11T12:07:56.916Z,22.23
2022-08-11T12:10:38.054Z,22.34
2022-08-11T12:13:23.922Z,22.07
2022-08-11T12:16:31.566Z,21.85
2022-08-11T12:18:39.109Z,22.43
2022-08-11T12:21:06.548Z,22.96
2022-08-11T12:23:53.234Z,23.27
2022-08-11T12:27:15.336Z,22.70
2022-08-11T12:29:45.283Z,22.44
2022-08-11T12:32:12.184Z,23.03
2022-08-11T12:34:38.846Z,23.35
2022-08-11T12:37:13.016Z,22.97
2022-08-11T12:40:15.645Z,23.08
2022-08-11T12:43:21.707Z,23.29
2022-08-11T12:45:53.272Z,23.90
2022-08-11T12:49:01.254Z,23.39
2022-08-11T12:52:10.933Z,22.55
2022-08-11T12:54:57.778Z,22.47
2022-08-11T12:58:03.602Z,22.22
2022-08-11T13:00:49.395Z,22.31
2022-08-11T13:03:38.054Z,22.19
2022-08-11T13:06:06.362Z,22.61
2022-08-11T13:08:35.592Z,22.45
2022-08-11T13:11:21.739Z,22.59
2022-08-11T13:13:54.301Z,22.27
2022-08-11T13:16:28.347Z,22.05
2022-08-11T13:18:56.823Z,22.24
2022-08-11T13:21:24.015Z,22.39
2022-08-11T13:23:59.869Z,22.13
2022-08-11T13:26:47.899Z,22.56
2022-08-11T13:29:21.900Z,23.12
2022-08-11T13:31:49.303Z,22.90
2022-08-11T13:34:17.349Z,22.66
2022-08-11T13:36:45.157Z,22.99
2022-08-11T13:39:13.718Z,22.99
2022-08-11T13:41:42.241Z,23.49
2022-08-11T13:44:12.458Z,23.92
2022-08-11T13:46:44.447Z,23.81
2022-08-11T13:49:11.822Z,23.93
2022-08-11T13:51:40.152Z,23.70
2022-08-11T13:54:18.951Z,23.70
2022-08-11T13:56:48.067Z,23.39
2022-08-11T13:59:15.990Z,23.54
2022-08-11T14:02:19.484Z,23.38
2022-08-11T14:04:40.826Z,23.13
2022-08-11T14:07:09.629Z,23.04
2022-08-11T14:09:40.098Z,22.89
2022-08-11T14:12:40.331Z,23.14
2022-08-11T14:15:34.334Z,23.20
2022-08-11T14:18:08.775Z,23.45
2022-08-11T14:20:56.414Z,23.68
2022-08-11T14:23:37.684Z,23.62
2022-08-11T14:26:23.148Z,23.94
2022-08-11T14:29:08.261Z,24.29
2022-08-11T14:31:38.641Z,24.40
2022-08-11T14:34:10.505Z,24.07
2022-08-11T14:36:39.837Z,24.14
2022-08-11T14:39:12.902Z,23.76
2022-08-11T14:42:07.551Z,23.99
2022-08-11T14:44:59.534Z,24.04
2022-08-11T14:47:27.896Z,24.02
2022-08-11T14:50:09.457Z,24.09
2022-08-11T14:52:41.349Z,24.01
2022-08-11T14:55:27.087Z,23.58
2022-08-11T14:57:57.062Z,23.45
2022-08-11T15:00:24.424Z,23.32
2022-08-11T15:03:10.493Z,23.31
2022-08-11T15:06:09.992Z,23.63
2022-08-11T15:08:57.042Z,23.08
2022-08-11T15:11:49.394Z,22.79
2022-08-11T15:14:39.187Z,22.76
2022-08-11T15:17:09.035Z,22.84
2022-08-11T15:19:40.891Z,22.83
2022-08-11T15:22:28.169Z,23.03
2022-08-11T15:24:54.977Z,22.75
2022-08-11T15:27:41.045Z,22.60
2022-08-11T15:30:32.181Z,22.57
2022-08-11T15:33:21.877Z,22.84
2022-08-11T15:36:08.022Z,23.14
2022-08-11T15:38:36.394Z,23.60
2022-08-11T15:41:23.231Z,24.03
2022-08-11T15:44:11.742Z,23.74
2022-08-11T15:46:41.728Z,23.67
2022-08-11T15:49:11.206Z,23.91
2022-08-11T15:51:48.514Z,23.84
2022-08-11T15:54:18.133Z,24.10
2022-08-11T15:56:52.140Z,23.95
2022-08-11T15:59:42.092Z,24.09
2022-08-11T16:02:32.104Z,24.23
2022-08-11T16:05:00.131Z,23.96
2022-08-11T16:07:29.215Z,23.75
2022-08-11T16:10:07.554Z,23.39
2022-08-11T16:12:42.089Z,23.24
2022-08-11T16:15:29.088Z,23.25
2022-08-11T16:18:05.502Z,23.32
2022-08-11T16:20:32.935Z,23.32
2022-08-11T16:23:03.717Z,23.28
2022-08-11T16:27:06.207Z,22.94
2022-08-11T16:28:23.779Z,22.92
2022-08-11T16:30:51.238Z,22.95
2022-08-11T16:33:47.973Z,22.78
2022-08-11T16:36:24.653Z,22.73
2022-08-11T16:38:53.093Z,22.78
2022-08-11T16:41:41.062Z,22.71
2022-08-11T16:44:37.189Z,22.72
2022-08-11T16:47:06.644Z,22.60
2022-08-11T16:49:43.004Z,22.61
2022-08-11T16:52:14.095Z,22.58
2022-08-11T16:54:44.397Z,22.57
2022-08-11T16:57:41.651Z,22.44
2022-08-11T17:00:12.546Z,22.32
2022-08-11T17:03:04.343Z,22.26
2022-08-11T17:05:54.292Z,22.30
2022-08-11T17:08:57.220Z,22.15
2022-08-11T17:11:46.238Z,22.26
2022-08-11T17:14:35.146Z,22.12
2022-08-11T17:17:05.115Z,22.11
2022-08-11T17:20:43.312Z,22.09
2022-08-11T17:22:39.431Z,22.07
2022-08-11T17:25:07.166Z,21.93
2022-08-11T17:27:35.270Z,21.96
2022-08-11T17:30:05.319Z,21.90
2022-08-11T17:33:03.998Z,21.86
2022-08-11T17:35:35.135Z,22.01
2022-08-11T17:38:08.161Z,21.92
2022-08-11T17:40:38.973Z,21.89
2022-08-11T17:43:27.767Z,21.91
2022-08-11T17:46:05.273Z,21.82
2022-08-11T17:48:47.958Z,21.95
2022-08-11T17:51:37.948Z,21.92
2022-08-11T17:54:25.414Z,21.98
2022-08-11T17:57:20.495Z,21.96
2022-08-11T17:59:56.569Z,21.96
2022-08-11T18:02:52.489Z,21.92
2022-08-11T18:05:21.367Z,21.93
2022-08-11T18:08:09.609Z,22.00
2022-08-11T18:10:55.470Z,21.94
2022-08-11T18:13:48.937Z,21.88
2022-08-11T18:16:34.486Z,21.80
2022-08-11T18:19:19.914Z,21.81
2022-08-11T18:22:14.534Z,21.87
2022-08-11T18:25:10.856Z,21.73
2022-08-11T18:27:57.573Z,21.81
2022-08-11T18:30:44.120Z,21.87
2022-08-11T18:36:43.068Z,21.87
2022-08-11T18:39:29.829Z,21.86
2022-08-11T18:42:26.652Z,21.93
2022-08-11T18:45:18.495Z,21.82
2022-08-11T18:48:05.506Z,21.85
2022-08-11T18:50:52.582Z,21.86
2022-08-11T18:53:58.431Z,21.80
2022-08-11T18:56:45.274Z,21.87
2022-08-11T18:59:31.028Z,21.80
2022-08-11T19:02:16.660Z,21.79
2022-08-11T19:05:03.274Z,21.81
2022-08-11T19:07:50.264Z,21.73
2022-08-11T19:10:37.647Z,21.67
2022-08-11T19:13:25.432Z,21.62
2022-08-11T19:16:12.647Z,21.70
2022-08-11T19:18:59.496Z,21.70
2022-08-11T19:21:46.680Z,21.72
2022-08-11T19:24:33.666Z,21.74
2022-08-11T19:27:22.943Z,21.63
2022-08-11T19:30:13.981Z,21.63
2022-08-11T19:33:00.561Z,21.70
2022-08-11T19:35:46.215Z,21.72
2022-08-11T19:38:34.574Z,21.70
2022-08-11T19:41:52.362Z,21.60
2022-08-11T19:44:25.831Z,21.61
2022-08-11T19:47:15.036Z,21.65
2022-08-11T19:50:03.558Z,21.62
2022-08-11T19:52:52.095Z,21.59
2022-08-11T19:55:37.999Z,21.56
2022-08-11T19:58:27.545Z,21.61
2022-08-11T20:01:12.874Z,21.54
2022-08-11T20:03:58.156Z,21.51
2022-08-11T20:06:43.310Z,21.55
2022-08-11T20:10:05.123Z,21.51
2022-08-11T20:12:35.074Z,21.50
2022-08-11T20:15:21.775Z,21.49
2022-08-11T20:18:06.949Z,21.52
2022-08-11T20:20:51.930Z,21.52
2022-08-11T20:23:37.539Z,21.46
2022-08-11T20:26:31.751Z,21.49
2022-08-11T20:29:17.878Z,21.49
2022-08-11T20:32:06.411Z,21.50
2022-08-11T20:34:57.074Z,21.49
2022-08-11T20:37:46.637Z,21.45
2022-08-11T20:40:34.598Z,21.35
2022-08-11T20:44:06.400Z,21.46
2022-08-11T20:46:25.709Z,21.45
2022-08-11T20:49:11.766Z,21.46
2022-08-11T20:51:58.203Z,21.43
2022-08-11T20:54:44.899Z,21.42
2022-08-11T20:57:54.606Z,21.41
2022-08-11T21:00:39.346Z,21.45
2022-08-11T21:03:35.530Z,21.40
2022-08-11T21:06:31.594Z,21.46
2022-08-11T21:09:23.952Z,21.41
2022-08-11T21:12:28.939Z,21.42
2022-08-11T21:15:15.293Z,21.40
2022-08-11T21:18:28.282Z,21.46
2022-08-11T21:21:16.706Z,21.41
2022-08-11T21:24:02.399Z,21.30
2022-08-11T21:26:50.055Z,21.38
2022-08-11T21:29:36.421Z,21.42
2022-08-11T21:32:22.028Z,21.47
2022-08-11T21:35:07.977Z,21.43
2022-08-11T21:37:53.919Z,21.44
2022-08-11T21:40:40.037Z,21.33
2022-08-11T21:43:25.811Z,21.33
2022-08-11T21:46:11.336Z,21.34
2022-08-11T21:48:58.075Z,21.33
2022-08-11T21:51:44.678Z,21.28
2022-08-11T21:54:30.006Z,21.32
2022-08-11T21:57:15.290Z,21.29
2022-08-11T22:00:09.775Z,21.29
2022-08-11T22:02:57.513Z,21.27
2022-08-11T22:05:43.969Z,21.20
2022-08-11T22:08:29.849Z,21.19
2022-08-11T22:11:15.029Z,21.22
2022-08-11T22:14:06.040Z,21.18
2022-08-11T22:16:54.282Z,21.05
2022-08-11T22:19:40.363Z,20.92
2022-08-11T22:22:26.429Z,21.02
2022-08-11T22:25:16.576Z,20.97
2022-08-11T22:28:03.891Z,20.94
2022-08-11T22:30:49.145Z,20.87
2022-08-11T22:33:34.258Z,20.94
2022-08-11T22:36:19.929Z,20.90
2022-08-11T22:39:05.881Z,20.88
2022-08-11T22:41:51.456Z,20.87
2022-08-11T22:44:36.798Z,20.82
2022-08-11T22:47:22.652Z,20.80
2022-08-11T22:50:16.087Z,20.71
2022-08-11T22:53:01.733Z,20.66
2022-08-11T22:55:47.558Z,20.68
2022-08-11T22:58:34.095Z,20.74
2022-08-11T23:01:20.025Z,20.81
2022-08-11T23:04:06.193Z,20.77
2022-08-11T23:06:53.268Z,20.70
2022-08-11T23:09:38.703Z,20.68
2022-08-11T23:12:24.307Z,20.56
2022-08-11T23:15:10.034Z,20.61
2022-08-11T23:17:55.927Z,20.62
2022-08-11T23:20:48.033Z,20.54
2022-08-11T23:23:35.842Z,20.46
2022-08-11T23:26:22.355Z,20.45
2022-08-11T23:29:07.690Z,20.48
2022-08-11T23:31:53.775Z,20.43
2022-08-11T23:35:37.246Z,20.39
2022-08-11T23:38:04.070Z,20.29
2022-08-11T23:40:49.328Z,20.31
2022-08-11T23:43:37.722Z,20.23
2022-08-11T23:46:24.304Z,20.21
2022-08-11T23:49:14.806Z,20.11
2022-08-11T23:52:00.561Z,20.14
2022-08-11T23:54:45.716Z,20.05
2022-08-11T23:57:31.682Z,20.02
